ZSSS/SHA METAR and TAF weather

Enter ICAO airport designator
Station Type Date Time Source
ZSSS METAR 2020/09/25 20:30 UTC NOAA

ZSSS 252030Z 35004MPS CAVOK 21/18 Q1014 NOSIG


Station Type Date Time Source
ZSSS Decoded METAR 2020/09/25 20:30 UTC NOAA

Shanghai / Hongqiao, China (ZSSS) 31-10N 121-26E 3M
Sep 25, 2020 - 04:30 PM EDT / 2020.09.25 2030 UTC
Wind: from the N (350 degrees) at 9 MPH (8 KT):0
Visibility: greater than 7 mile(s):0
Temperature: 69 F (21 C)
Dew Point: 64 F (18 C)
Relative Humidity: 82%
Pressure (altimeter): 29.94 in. Hg (1014 hPa)
ob: ZSSS 252030Z 35004MPS CAVOK 21/18 Q1014 NOSIG
cycle: 20

Station Type Date Time Source
ZSSS TAF 2020/09/25 18:03 UTC NOAA

TAF ZSSS 251505Z 2518/2618 01004MPS 6000 BKN020 TX27/2606Z TN19/2521Z

Example: see airport list